Terminal Aerodrome Forecast
Issued by NWS

Home | Current Version | Previous Version | Text Only | Print | Product List | Glossary On
Versions: 1 2 3 4 5 6 7 8 9 10 11 12 13 14 15 16 17 18 19 20 21 22 23 24 25 26 27 28 29
000
FTUS45 KRIW 220520
TAFWRL
TAF
KWRL 220520Z 2206/2306 32010KT P6SM VCSH OVC050
     FM220900 32020G30KT 4SM -SN OVC020
      TEMPO 2211/2214 2SM -SN BKN008
     FM221500 33014G22KT P6SM OVC040
     FM222200 34015KT P6SM BKN040
     FM230300 31006KT P6SM SCT060=

USA.gov is the U.S. government's official web portal to all federal, state and local government web resources and services.